Jimma Airport


Codes: HAJM/JIM
Name: Jimma Airport
City: Jimma
Country: Ethiopia
Elevation: 5500 ft.
Wikipedia:

Photos at Jimma Airport


   Photos courtesy of SpottingLog. You can add your own sightings and photos by signing up for a free trial today.



No photos found.

Weather at Jimma Airport


Time (UTC)DescriptionTempratureWindCloud coverageVisibilityPressureHumidity
21-Jun-2024 15:00Light Rain23°C2 mph, SW71%10000m1013hPa74%
21-Jun-2024 18:00Light Rain19°C2 mph, SW71%10000m1016hPa85%
21-Jun-2024 21:00Light Rain16°C2 mph, N88%8098m1018hPa98%
22-Jun-2024 00:00Moderate Rain16°C4 mph, W94%8768m1016hPa99%
22-Jun-2024 03:00Light Rain15°C0 mph, S100%10000m1018hPa97%
22-Jun-2024 06:00Overcast Clouds18°C2 mph, NE100%10000m1018hPa86%
22-Jun-2024 09:00Light Rain23°C2 mph, N99%10000m1015hPa66%
22-Jun-2024 12:00Moderate Rain23°C0 mph, W99%10000m1013hPa78%
22-Jun-2024 15:00Moderate Rain18°C2 mph, SE100%7313m1014hPa93%
22-Jun-2024 18:00Moderate Rain16°C2 mph, S100%10000m1017hPa98%
22-Jun-2024 21:00Light Rain16°C2 mph, SW100%10000m1017hPa96%
23-Jun-2024 00:00Overcast Clouds15°C2 mph, NW100%10000m1016hPa96%
23-Jun-2024 03:00Overcast Clouds15°C0 mph, NW100%10000m1017hPa97%
23-Jun-2024 06:00Overcast Clouds18°C2 mph, SE100%10000m1018hPa89%
23-Jun-2024 09:00Light Rain21°C2 mph, S100%10000m1016hPa72%
23-Jun-2024 12:00Light Rain21°C2 mph, S100%10000m1013hPa81%
23-Jun-2024 15:00Light Rain19°C4 mph, SW100%10000m1014hPa94%
23-Jun-2024 18:00Moderate Rain16°C0 mph, E99%8993m1017hPa95%
23-Jun-2024 21:00Light Rain16°C2 mph, NW100%10000m1018hPa98%
24-Jun-2024 00:00Light Rain15°C0 mph, NW100%10000m1017hPa98%
24-Jun-2024 03:00Overcast Clouds15°C0 mph, NW100%10000m1018hPa97%
24-Jun-2024 06:00Light Rain18°C2 mph, SE100%10000m1019hPa91%
24-Jun-2024 09:00Light Rain22°C2 mph, E100%10000m1016hPa69%
24-Jun-2024 12:00Light Rain22°C2 mph, S93%10000m1013hPa76%
24-Jun-2024 15:00Light Rain19°C4 mph, S98%10000m1013hPa92%
24-Jun-2024 18:00Light Rain15°C2 mph, SW88%10000m1017hPa96%
24-Jun-2024 21:00Light Rain15°C2 mph, NE98%8624m1018hPa98%
25-Jun-2024 00:00Moderate Rain15°C4 mph, NW99%5101m1016hPa99%
25-Jun-2024 03:00Light Rain15°C0 mph, SW100%10000m1018hPa99%
25-Jun-2024 06:00Overcast Clouds18°C2 mph, NW100%10000m1018hPa88%
25-Jun-2024 09:00Light Rain22°C4 mph, N99%10000m1016hPa72%
25-Jun-2024 12:00Light Rain20°C4 mph, N99%10000m1014hPa85%
25-Jun-2024 15:00Light Rain17°C4 mph, SW100%10000m1014hPa93%
25-Jun-2024 18:00Overcast Clouds16°C0 mph, W96%10000m1016hPa96%
25-Jun-2024 21:00Overcast Clouds15°C0 mph, W96%10000m1017hPa97%
26-Jun-2024 00:00Overcast Clouds15°C2 mph, N98%10000m1016hPa98%
26-Jun-2024 03:00Light Rain14°C2 mph, NW100%8378m1017hPa99%
26-Jun-2024 06:00Overcast Clouds17°C2 mph, N100%10000m1017hPa92%
26-Jun-2024 09:00Light Rain21°C2 mph, NE99%10000m1015hPa74%
26-Jun-2024 12:00Light Rain20°C0 mph, N99%10000m1013hPa90%